Time;durP1;ratioP1;P1;durP2;ratioP2;P2;SDS_P1;SDS_P2;PMS_P1;PMS_P2;Temp;Humidity;BMP_temperature;BMP_pressure;BME280_temperature;BME280_humidity;BME280_pressure;Samples;Min_cycle;Max_cycle;Signal;HPM_P1;HPM_P2
2022/02/22 00:00:09;;;;;;;36.10;18.15;;;;;;;5.55;100.00;95877.75;5025808;28;20141;-58
2022/02/22 00:02:36;;;;;;;27.65;15.38;;;;;;;5.58;100.00;95915.50;5025758;28;20147;-57
2022/02/22 00:05:03;;;;;;;32.67;15.73;;;;;;;5.62;100.00;95913.59;5025952;28;20132;-57
2022/02/22 00:07:30;;;;;;;52.47;19.65;;;;;;;5.33;100.00;95854.63;5025555;28;20155;-57
2022/02/22 00:09:57;;;;;;;30.23;14.00;;;;;;;5.80;100.00;95909.97;5025670;28;20061;-58
2022/02/22 00:12:23;;;;;;;33.65;15.75;;;;;;;5.75;100.00;95887.53;5025415;28;20057;-58
2022/02/22 00:14:50;;;;;;;49.67;18.98;;;;;;;5.85;100.00;95904.22;5025316;28;20136;-56
2022/02/22 00:17:17;;;;;;;37.40;15.88;;;;;;;5.84;100.00;95890.84;5025135;28;20107;-57
2022/02/22 00:19:44;;;;;;;31.13;14.57;;;;;;;5.77;100.00;95885.22;5025311;28;20584;-57
2022/02/22 00:22:11;;;;;;;33.63;14.50;;;;;;;5.80;100.00;95878.97;5025693;28;20575;-58
2022/02/22 00:24:37;;;;;;;31.02;15.55;;;;;;;5.87;100.00;95890.09;5025476;28;20053;-57
2022/02/22 00:27:04;;;;;;;36.83;15.98;;;;;;;5.77;100.00;95869.50;5023617;28;20439;-58
2022/02/22 00:29:31;;;;;;;34.97;17.90;;;;;;;5.96;100.00;95890.63;5023177;28;20421;-57
2022/02/22 00:31:58;;;;;;;36.05;18.20;;;;;;;5.98;100.00;95880.88;5025068;28;20052;-56
2022/02/22 00:34:25;;;;;;;35.97;18.20;;;;;;;5.73;99.65;95854.94;5023252;28;20056;-56
2022/02/22 00:36:51;;;;;;;50.17;20.02;;;;;;;5.65;99.73;95827.72;5023688;28;20421;-57
2022/02/22 00:39:18;;;;;;;35.45;18.48;;;;;;;5.62;99.11;95822.97;5024685;28;20053;-57
2022/02/22 00:41:45;;;;;;;33.90;17.33;;;;;;;5.43;99.10;95770.88;5025261;28;20060;-58
2022/02/22 00:44:12;;;;;;;28.42;13.35;;;;;;;5.79;100.00;95823.22;5018118;28;20594;-56
2022/02/22 00:46:38;;;;;;;27.40;13.43;;;;;;;5.83;100.00;95861.78;5005333;28;20136;-56
2022/02/22 00:49:05;;;;;;;26.55;13.60;;;;;;;5.91;100.00;95861.50;5004831;28;20138;-58
2022/02/22 00:51:32;;;;;;;21.40;11.57;;;;;;;5.64;100.00;95842.63;5005339;28;20052;-57
2022/02/22 00:53:58;;;;;;;25.63;13.20;;;;;;;2.96;100.00;95404.06;5004472;28;20128;-58
2022/02/22 00:56:25;;;;;;;30.45;12.85;;;;;;;6.01;100.00;95857.34;5005081;28;20129;-56
2022/02/22 00:58:53;;;;;;;28.20;13.35;;;;;;;5.98;100.00;95852.59;5003330;28;20046;-57
2022/02/22 01:01:20;;;;;;;29.25;13.25;;;;;;;5.87;100.00;95848.88;5003495;28;20459;-58
2022/02/22 01:03:47;;;;;;;38.70;17.58;;;;;;;5.61;100.00;95799.41;5005028;28;20592;-57
2022/02/22 01:06:14;;;;;;;32.38;14.88;;;;;;;6.12;100.00;95852.81;5004827;28;20147;-57
2022/02/22 01:08:40;;;;;;;30.50;13.40;;;;;;;6.05;99.45;95830.72;5004731;28;20098;-58
2022/02/22 01:11:07;;;;;;;29.15;13.85;;;;;;;6.08;100.00;95851.97;5004421;28;20066;-56
2022/02/22 01:13:34;;;;;;;30.77;14.07;;;;;;;5.99;100.00;95851.44;5004516;28;20054;-57
2022/02/22 01:16:01;;;;;;;31.17;15.15;;;;;;;6.09;100.00;95859.03;5004520;28;20951;-57
2022/02/22 01:18:28;;;;;;;38.05;17.45;;;;;;;6.09;98.97;95848.84;5003307;28;20061;-57
2022/02/22 01:20:55;;;;;;;35.05;15.35;;;;;;;6.16;98.17;95848.16;5004547;28;20096;-59
2022/02/22 01:23:22;;;;;;;30.55;15.07;;;;;;;6.21;97.81;95839.59;5004651;28;20076;-56
2022/02/22 01:25:50;;;;;;;33.40;14.52;;;;;;;6.16;98.27;95820.66;5004555;28;20057;-57
2022/02/22 01:28:17;;;;;;;33.65;15.25;;;;;;;6.22;98.33;95838.41;5004090;28;20708;-57
2022/02/22 01:30:44;;;;;;;29.13;14.52;;;;;;;6.27;98.55;95827.09;5004329;28;20149;-57
2022/02/22 01:33:10;;;;;;;31.52;14.48;;;;;;;5.89;98.46;95766.88;5004350;28;20686;-58
2022/02/22 01:35:39;;;;;;;31.45;14.90;;;;;;;6.23;99.21;95809.75;5003278;28;20058;-59
2022/02/22 01:38:06;;;;;;;34.28;13.60;;;;;;;6.28;96.58;95816.88;5004063;28;20054;-58
2022/02/22 01:40:33;;;;;;;27.55;12.52;;;;;;;6.19;95.53;95814.44;5004361;28;20166;-59
2022/02/22 01:43:00;;;;;;;26.13;12.57;;;;;;;5.62;97.50;95768.81;5004317;28;20133;-59
2022/02/22 01:45:27;;;;;;;28.92;12.98;;;;;;;5.96;96.90;95810.94;5019382;28;20128;-57
2022/02/22 01:47:54;;;;;;;26.20;12.70;;;;;;;5.83;97.30;95807.63;5024275;28;20057;-57
2022/02/22 01:50:21;;;;;;;28.20;12.20;;;;;;;5.02;100.00;95816.44;5023924;28;20061;-57
2022/02/22 01:52:48;;;;;;;25.30;12.27;;;;;;;5.09;100.00;95826.75;5022752;28;20107;-57
2022/02/22 01:55:16;;;;;;;31.80;12.80;;;;;;;4.97;100.00;95791.25;5024132;28;20057;-57
2022/02/22 01:57:43;;;;;;;26.33;13.45;;;;;;;4.87;100.00;95813.81;5024061;28;20050;-57
2022/02/22 02:00:11;;;;;;;27.58;13.15;;;;;;;5.11;100.00;95846.38;5023902;28;20435;-59
2022/02/22 02:02:38;;;;;;;23.92;12.38;;;;;;;5.13;100.00;95841.31;5021965;28;20045;-57
2022/02/22 02:05:06;;;;;;;23.30;11.48;;;;;;;5.04;100.00;95814.13;5021204;28;20096;-57
2022/02/22 02:07:33;;;;;;;25.40;12.65;;;;;;;5.18;100.00;95838.28;5023909;28;20081;-58
2022/02/22 02:09:59;;;;;;;29.65;13.82;;;;;;;5.16;100.00;95821.38;5023637;28;20456;-58
2022/02/22 02:12:27;;;;;;;27.98;12.98;;;;;;;5.32;100.00;95825.59;5023662;28;20049;-57
2022/02/22 02:14:53;;;;;;;28.95;13.65;;;;;;;5.31;100.00;95825.97;5023273;28;20088;-59
2022/02/22 02:17:20;;;;;;;28.40;11.60;;;;;;;5.27;100.00;95834.13;5023519;28;20053;-57
2022/02/22 02:19:47;;;;;;;23.67;11.65;;;;;;;5.22;100.00;95817.97;5023433;28;20057;-57
2022/02/22 02:22:15;;;;;;;26.17;12.43;;;;;;;5.09;100.00;95804.81;5023285;28;20120;-58
2022/02/22 02:24:42;;;;;;;25.52;11.27;;;;;;;5.11;99.89;95824.41;5023311;28;20136;-57
2022/02/22 02:27:09;;;;;;;25.30;12.35;;;;;;;5.17;99.95;95822.97;5023266;28;20132;-58
2022/02/22 02:29:36;;;;;;;32.42;14.63;;;;;;;5.28;98.55;95829.47;5023332;28;20192;-57
2022/02/22 02:32:03;;;;;;;31.48;13.13;;;;;;;5.36;98.50;95842.16;5023350;28;20049;-57
2022/02/22 02:34:29;;;;;;;26.05;12.48;;;;;;;5.38;98.70;95817.84;5023104;28;20128;-57
2022/02/22 02:36:56;;;;;;;27.80;13.45;;;;;;;5.23;99.07;95805.81;5023316;28;20076;-57
2022/02/22 02:39:23;;;;;;;28.83;14.32;;;;;;;5.35;100.00;95819.38;5022690;28;20172;-57
2022/02/22 02:41:51;;;;;;;36.85;15.13;;;;;;;5.38;100.00;95828.81;5023034;28;20046;-57
2022/02/22 02:44:20;;;;;;;32.80;16.35;;;;;;;5.33;100.00;95826.38;5017855;28;20050;-57
2022/02/22 02:46:47;;;;;;;49.80;21.15;;;;;;;5.29;100.00;95825.53;5003659;28;20064;-59
2022/02/22 02:49:16;;;;;;;61.22;25.77;;;;;;;4.91;100.00;95759.78;5003598;28;20058;-58
2022/02/22 02:51:42;;;;;;;49.78;22.27;;;;;;;5.27;100.00;95822.34;5003629;28;20424;-57
2022/02/22 02:54:10;;;;;;;49.83;21.65;;;;;;;4.66;100.00;95738.19;5003543;28;20076;-57
2022/02/22 02:56:38;;;;;;;52.40;21.75;;;;;;;5.17;100.00;95828.47;5003529;28;20050;-58
2022/02/22 02:59:08;;;;;;;44.13;20.05;;;;;;;5.18;100.00;95830.84;5002897;28;20066;-58
2022/02/22 03:01:36;;;;;;;39.35;17.67;;;;;;;5.28;100.00;95812.97;5003604;28;20141;-59
2022/02/22 03:04:04;;;;;;;33.13;16.08;;;;;;;5.28;100.00;95808.25;5003434;28;20054;-57
2022/02/22 03:06:31;;;;;;;35.60;16.60;;;;;;;5.56;100.00;95829.94;5003608;28;20049;-59
2022/02/22 03:08:58;;;;;;;32.17;15.50;;;;;;;5.52;100.00;95823.56;5003480;28;20083;-57
2022/02/22 03:11:25;;;;;;;34.65;14.60;;;;;;;5.66;100.00;95834.78;5003616;28;20054;-56
2022/02/22 03:13:52;;;;;;;33.72;16.25;;;;;;;5.35;100.00;95791.13;5003575;28;20060;-58
2022/02/22 03:16:18;;;;;;;31.73;15.73;;;;;;;5.75;100.00;95838.09;5003046;28;20113;-58
2022/02/22 03:18:45;;;;;;;33.17;15.52;;;;;;;5.81;100.00;95820.13;5006737;28;20050;-58
2022/02/22 03:21:12;;;;;;;37.30;17.13;;;;;;;5.92;100.00;95827.41;5006471;28;20042;-57
2022/02/22 03:23:39;;;;;;;30.40;15.88;;;;;;;6.03;100.00;95822.06;5006517;28;20054;-57
2022/02/22 03:26:06;;;;;;;27.33;15.18;;;;;;;5.82;100.00;95797.00;5006540;28;20054;-59
2022/02/22 03:28:34;;;;;;;29.55;14.63;;;;;;;5.80;100.00;95824.03;5006908;28;20057;-57
2022/02/22 03:31:03;;;;;;;34.63;15.13;;;;;;;5.69;100.00;95828.56;5006436;28;20085;-57
2022/02/22 03:33:31;;;;;;;32.80;15.52;;;;;;;5.88;100.00;95831.25;5006683;28;20501;-57
2022/02/22 03:35:59;;;;;;;32.90;14.00;;;;;;;5.31;100.00;95724.41;5006597;28;20516;-58
2022/02/22 03:38:26;;;;;;;26.88;14.02;;;;;;;5.93;100.00;95817.19;5005852;28;20089;-57
2022/02/22 03:40:52;;;;;;;26.55;13.55;;;;;;;5.81;100.00;95820.13;5006396;28;20049;-57
2022/02/22 03:43:19;;;;;;;28.95;14.25;;;;;;;6.00;100.00;95822.78;5006203;28;20428;-57
2022/02/22 03:45:46;;;;;;;30.90;15.82;;;;;;;5.56;100.00;95751.09;5023815;28;20060;-58
2022/02/22 03:48:13;;;;;;;162.18;49.97;;;;;;;6.03;100.00;95833.03;5026189;28;20541;-56
2022/02/22 03:50:40;;;;;;;191.13;57.78;;;;;;;6.11;100.00;95826.47;5026238;28;20049;-57
2022/02/22 03:53:06;;;;;;;92.88;36.88;;;;;;;6.14;100.00;95817.50;5026242;28;20080;-58
2022/02/22 03:55:34;;;;;;;222.27;58.05;;;;;;;6.25;99.25;95834.13;5025963;28;20056;-57
2022/02/22 03:58:00;;;;;;;77.40;25.67;;;;;;;5.98;97.56;95781.13;5025917;28;20053;-58
2022/02/22 04:00:27;;;;;;;53.55;21.88;;;;;;;6.28;98.84;95833.38;5025328;28;20049;-57
2022/02/22 04:02:54;;;;;;;61.03;21.48;;;;;;;6.19;98.96;95808.94;5024103;28;20228;-57
2022/02/22 04:05:21;;;;;;;58.15;22.42;;;;;;;6.37;99.17;95825.66;5025203;28;20536;-57
2022/02/22 04:07:49;;;;;;;95.43;30.98;;;;;;;6.43;98.23;95824.16;5025599;28;20435;-58
2022/02/22 04:10:16;;;;;;;48.15;19.05;;;;;;;6.35;97.37;95831.53;5025599;28;20053;-58
2022/02/22 04:12:46;;;;;;;58.72;21.25;;;;;;;6.36;97.61;95830.38;5024532;28;20068;-57
2022/02/22 04:15:12;;;;;;;65.75;23.48;;;;;;;6.15;96.83;95802.56;5025344;28;20060;-58
2022/02/22 04:17:40;;;;;;;36.28;15.35;;;;;;;5.51;99.25;95822.00;5023720;28;20508;-57
2022/02/22 04:20:08;;;;;;;35.05;16.13;;;;;;;5.22;100.00;95847.34;5025256;28;20054;-59
2022/02/22 04:22:35;;;;;;;32.67;16.17;;;;;;;4.53;100.00;95772.44;5025231;28;20060;-58
2022/02/22 04:25:03;;;;;;;28.70;14.57;;;;;;;4.65;100.00;95785.97;5023305;28;20045;-57
2022/02/22 04:27:30;;;;;;;33.33;16.60;;;;;;;4.77;100.00;95817.13;5022717;28;20045;-57
2022/02/22 04:29:57;;;;;;;28.80;13.73;;;;;;;4.65;100.00;95845.50;5023510;28;20057;-60
2022/02/22 04:32:24;;;;;;;40.05;17.45;;;;;;;4.86;100.00;95834.16;5024957;28;20049;-57
2022/02/22 04:34:50;;;;;;;35.22;16.67;;;;;;;5.07;100.00;95823.56;5025666;28;20136;-57
2022/02/22 04:37:18;;;;;;;71.28;33.20;;;;;;;5.40;100.00;95837.50;5025472;28;20053;-58
2022/02/22 04:39:50;;;;;;;64.32;27.35;;;;;;;5.18;100.00;95791.63;5023595;28;20057;-57
2022/02/22 04:42:18;;;;;;;63.08;27.60;;;;;;;5.71;100.00;95826.22;5023742;28;20059;-57
2022/02/22 04:44:45;;;;;;;56.20;25.73;;;;;;;5.92;100.00;95832.09;5016034;28;20592;-58
2022/02/22 04:47:12;;;;;;;55.28;23.58;;;;;;;6.08;100.00;95832.72;5005486;28;20050;-58
2022/02/22 04:49:40;;;;;;;61.65;26.42;;;;;;;6.14;100.00;95834.00;5003504;28;20444;-57
2022/02/22 04:52:09;;;;;;;68.30;28.92;;;;;;;5.96;100.00;95778.75;5005260;28;20072;-57
2022/02/22 04:54:37;;;;;;;73.93;35.70;;;;;;;6.37;99.82;95831.94;5003677;28;20479;-57
2022/02/22 04:57:05;;;;;;;69.97;31.75;;;;;;;5.98;98.71;95768.19;5005323;28;20050;-57
2022/02/22 04:59:33;;;;;;;73.95;35.00;;;;;;;6.41;98.67;95830.03;5003259;28;20049;-57
2022/02/22 05:02:00;;;;;;;78.40;35.78;;;;;;;6.61;98.79;95836.97;5004792;28;20057;-57
2022/02/22 05:04:26;;;;;;;74.65;35.70;;;;;;;6.60;98.61;95824.41;5004690;28;20073;-59
2022/02/22 05:06:54;;;;;;;56.78;24.92;;;;;;;6.80;96.70;95842.31;5004492;28;20050;-57
2022/02/22 05:09:21;;;;;;;45.70;21.33;;;;;;;6.69;95.87;95833.16;5004539;28;20061;-57
2022/02/22 05:11:48;;;;;;;53.45;24.77;;;;;;;6.70;96.33;95845.72;5004997;28;20050;-58
2022/02/22 05:14:14;;;;;;;61.35;27.65;;;;;;;6.35;95.95;95768.28;5004659;28;20536;-57
2022/02/22 05:16:41;;;;;;;49.70;24.25;;;;;;;6.71;97.24;95841.03;5004710;28;20049;-58
2022/02/22 05:19:08;;;;;;;56.78;24.80;;;;;;;6.16;99.13;95760.19;5004406;28;20069;-59
2022/02/22 05:21:35;;;;;;;64.25;28.00;;;;;;;6.76;99.95;95860.75;5003056;28;20054;-56
2022/02/22 05:24:05;;;;;;;47.90;23.83;;;;;;;6.83;100.00;95849.06;5004366;28;20054;-57
2022/02/22 05:26:33;;;;;;;48.70;25.05;;;;;;;4.52;98.72;95452.03;5004396;28;20474;-58
2022/02/22 05:28:59;;;;;;;51.05;23.10;;;;;;;7.11;99.18;95847.38;5004306;28;20050;-57
2022/02/22 05:31:26;;;;;;;43.80;22.35;;;;;;;6.73;99.35;95789.97;5003845;28;20465;-58
2022/02/22 05:33:53;;;;;;;49.83;21.30;;;;;;;7.08;98.98;95828.09;5003109;28;20050;-59
2022/02/22 05:36:20;;;;;;;44.58;21.38;;;;;;;6.69;98.81;95780.88;5003003;28;20091;-57
2022/02/22 05:38:47;;;;;;;43.10;22.08;;;;;;;7.19;99.12;95862.81;5003837;28;20607;-57
2022/02/22 05:41:17;;;;;;;40.88;21.88;;;;;;;7.20;99.18;95861.66;5004448;28;20053;-58
2022/02/22 05:43:45;;;;;;;49.50;27.65;;;;;;;7.19;99.70;95845.53;5004002;28;20061;-58
2022/02/22 05:46:13;;;;;;;51.67;28.50;;;;;;;7.26;99.22;95854.63;5023816;28;20140;-57
2022/02/22 05:48:40;;;;;;;55.25;31.00;;;;;;;6.98;99.49;95801.25;5022693;28;20600;-57
2022/02/22 05:51:07;;;;;;;68.43;32.78;;;;;;;6.88;99.09;95769.69;5023889;28;20046;-57
2022/02/22 05:53:34;;;;;;;69.32;37.20;;;;;;;7.02;98.27;95780.84;5005334;28;20501;-58
2022/02/22 05:56:02;;;;;;;77.10;39.38;;;;;;;7.23;97.44;95814.09;4984128;28;20448;-55
2022/02/22 05:58:29;;;;;;;84.15;39.78;;;;;;;7.63;97.28;95858.13;4983030;28;20054;-57
2022/02/22 06:00:56;;;;;;;53.72;26.20;;;;;;;7.44;97.34;95874.09;4983875;28;20054;-57
2022/02/22 06:03:22;;;;;;;49.00;19.23;;;;;;;6.93;99.70;95868.44;4984037;28;20550;-57
2022/02/22 06:05:49;;;;;;;48.55;19.73;;;;;;;6.97;100.00;95869.25;4984493;28;20054;-57
2022/02/22 06:08:16;;;;;;;42.05;19.58;;;;;;;7.16;97.87;95858.06;4984626;28;20062;-57
2022/02/22 06:10:43;;;;;;;41.95;20.48;;;;;;;7.26;97.69;95867.59;4984123;28;20058;-56
2022/02/22 06:13:09;;;;;;;47.58;20.83;;;;;;;6.46;96.60;95736.22;4984303;28;20088;-57
2022/02/22 06:15:37;;;;;;;42.35;18.55;;;;;;;7.09;97.98;95869.03;4984174;28;20070;-56
2022/02/22 06:18:04;;;;;;;39.03;18.75;;;;;;;7.30;97.37;95866.47;4983588;28;20046;-57
2022/02/22 06:20:32;;;;;;;36.55;16.55;;;;;;;6.56;100.00;95848.31;4983685;28;20050;-58
2022/02/22 06:22:59;;;;;;;36.22;16.25;;;;;;;6.47;100.00;95875.31;4984074;28;20066;-56
2022/02/22 06:25:26;;;;;;;35.13;16.90;;;;;;;6.73;100.00;95883.53;4984138;28;20054;-57
2022/02/22 06:27:54;;;;;;;39.58;16.08;;;;;;;7.03;100.00;95881.53;4984124;28;20516;-57
2022/02/22 06:30:24;;;;;;;42.78;20.35;;;;;;;7.29;100.00;95872.34;4983920;28;20050;-56
2022/02/22 06:32:51;;;;;;;28.08;15.57;;;;;;;7.09;100.00;95873.72;4982446;28;20058;-58
2022/02/22 06:35:20;;;;;;;28.75;15.85;;;;;;;7.00;100.00;95882.25;4983807;28;20050;-56
2022/02/22 06:37:47;;;;;;;29.90;14.63;;;;;;;7.36;98.43;95889.78;4998438;28;20137;-58
2022/02/22 06:40:14;;;;;;;28.20;15.75;;;;;;;7.17;96.85;95834.88;4984038;28;20048;-58
2022/02/22 06:42:41;;;;;;;44.00;19.65;;;;;;;7.73;95.26;95878.69;4984234;28;20406;-59
2022/02/22 06:45:09;;;;;;;68.82;33.38;;;;;;;7.80;93.70;95881.53;5003016;28;20053;-57
2022/02/22 06:47:42;;;;;;;79.50;35.95;;;;;;;7.97;92.61;95891.09;5022767;28;20191;-57
2022/02/22 06:50:11;;;;;;;77.60;37.60;;;;;;;8.04;92.17;95867.16;5021153;28;20050;-57
2022/02/22 06:52:39;;;;;;;76.70;36.97;;;;;;;8.47;92.10;95884.81;5026420;28;20056;-56
2022/02/22 06:55:11;;;;;;;95.35;47.08;;;;;;;8.95;89.98;95887.06;5026981;28;20057;-57
2022/02/22 06:57:39;;;;;;;147.68;52.45;;;;;;;9.26;89.46;95891.13;5027000;28;20567;-56
2022/02/22 07:00:09;;;;;;;227.52;85.13;;;;;;;9.52;88.86;95888.03;5026998;28;20046;-57
2022/02/22 07:02:38;;;;;;;77.93;34.80;;;;;;;9.72;87.96;95869.13;4992684;28;20072;-56
2022/02/22 07:05:06;;;;;;;42.45;21.85;;;;;;;9.80;87.10;95838.28;4993644;28;20054;-56
2022/02/22 07:07:34;;;;;;;44.92;21.65;;;;;;;10.09;89.00;95881.41;5030039;28;20163;-57
2022/02/22 07:10:01;;;;;;;47.67;23.23;;;;;;;9.98;91.14;95888.88;4994690;28;20481;-56
2022/02/22 07:12:27;;;;;;;53.70;26.48;;;;;;;9.88;94.17;95889.66;5002885;28;20050;-57
2022/02/22 07:14:54;;;;;;;57.92;30.10;;;;;;;9.91;96.18;95893.63;4994143;28;20086;-56
2022/02/22 07:17:21;;;;;;;62.97;30.55;;;;;;;9.95;96.71;95886.91;4997285;28;20064;-58
2022/02/22 07:19:48;;;;;;;63.72;29.98;;;;;;;10.17;97.93;95883.00;5004898;28;20052;-57
2022/02/22 07:22:15;;;;;;;69.13;32.67;;;;;;;10.41;97.74;95882.19;4997958;28;20414;-55
2022/02/22 07:24:42;;;;;;;66.65;31.80;;;;;;;10.13;99.54;95884.19;4993628;28;20057;-58
2022/02/22 07:27:08;;;;;;;70.82;33.90;;;;;;;10.26;100.00;95877.84;5002124;28;20049;-58
2022/02/22 07:29:38;;;;;;;74.63;35.80;;;;;;;10.48;98.61;95873.88;4995595;28;20057;-58
2022/02/22 07:32:05;;;;;;;68.53;34.30;;;;;;;9.97;100.00;95872.69;4991981;28;20042;-58
2022/02/22 07:34:32;;;;;;;88.07;40.92;;;;;;;9.29;100.00;95810.22;5004463;28;20463;-57
2022/02/22 07:36:59;;;;;;;85.63;42.55;;;;;;;9.83;100.00;95831.97;4997617;28;20529;-59
2022/02/22 07:39:26;;;;;;;95.97;44.60;;;;;;;10.39;97.28;95876.25;5005957;28;20064;-56
2022/02/22 07:41:53;;;;;;;90.13;45.17;;;;;;;9.75;100.00;95879.38;5004914;28;20054;-58
2022/02/22 07:44:20;;;;;;;88.85;47.95;;;;;;;9.56;100.00;95882.50;4996644;28;20129;-57
2022/02/22 07:46:46;;;;;;;81.10;41.92;;;;;;;9.63;100.00;95886.06;4997949;28;20054;-57
2022/02/22 07:49:13;;;;;;;71.25;36.30;;;;;;;9.39;100.00;95814.19;5010101;28;20061;-59
2022/02/22 07:51:40;;;;;;;64.00;31.98;;;;;;;9.91;100.00;95883.34;4988737;28;20058;-57
2022/02/22 07:54:07;;;;;;;62.92;31.27;;;;;;;10.08;99.17;95887.34;5003463;28;20049;-59
2022/02/22 07:56:34;;;;;;;55.35;27.58;;;;;;;10.18;98.37;95873.50;4996778;28;20050;-59
2022/02/22 07:59:01;;;;;;;54.20;27.83;;;;;;;10.30;96.59;95867.56;5000191;28;20061;-58
2022/02/22 08:01:28;;;;;;;57.75;30.02;;;;;;;9.93;94.76;95786.94;4996830;28;20381;-60
2022/02/22 08:03:54;;;;;;;66.47;33.05;;;;;;;10.66;95.94;95865.53;4991723;28;20431;-57
2022/02/22 08:06:21;;;;;;;60.85;28.98;;;;;;;10.40;95.18;95796.78;5002004;28;20061;-58
2022/02/22 08:08:48;;;;;;;65.82;36.00;;;;;;;11.13;92.57;95864.19;5022825;28;20049;-60
2022/02/22 08:11:15;;;;;;;67.72;34.75;;;;;;;11.31;92.12;95859.34;4991257;28;20064;-61
2022/02/22 08:13:41;;;;;;;61.95;32.40;;;;;;;11.38;91.36;95828.81;4993182;28;20085;-58
2022/02/22 08:16:08;;;;;;;73.95;38.15;;;;;;;11.45;89.97;95814.91;5020363;28;20058;-61
2022/02/22 08:18:35;;;;;;;72.57;39.60;;;;;;;11.89;89.17;95848.31;4997044;28;20064;-57
2022/02/22 08:21:02;;;;;;;78.93;40.75;;;;;;;11.97;87.97;95820.09;4984214;28;20161;-56
2022/02/22 08:23:32;;;;;;;73.88;39.70;;;;;;;12.06;86.35;95778.03;5004622;28;20483;-60
2022/02/22 08:26:02;;;;;;;78.40;40.70;;;;;;;12.52;83.49;95814.44;4991747;28;20055;-58
2022/02/22 08:28:29;;;;;;;70.60;37.30;;;;;;;12.84;81.46;95800.97;5026483;28;20455;-56
2022/02/22 08:30:57;;;;;;;65.97;35.55;;;;;;;13.08;80.09;95811.03;4995092;28;20065;-58
2022/02/22 08:33:23;;;;;;;66.57;37.28;;;;;;;13.13;79.66;95827.28;4996406;28;20064;-59
2022/02/22 08:35:50;;;;;;;74.57;40.65;;;;;;;12.77;79.80;95756.59;4998146;28;20557;-59
2022/02/22 08:38:17;;;;;;;63.60;34.63;;;;;;;13.11;80.17;95840.78;4987839;28;20073;-56
2022/02/22 08:40:45;;;;;;;65.45;34.65;;;;;;;13.21;79.81;95842.66;4997491;28;20050;-61
2022/02/22 08:43:15;;;;;;;65.63;35.28;;;;;;;13.03;79.02;95808.72;4988644;28;20053;-59
2022/02/22 08:45:44;;;;;;;65.25;35.90;;;;;;;13.15;79.65;95844.31;5012373;28;20061;-58
2022/02/22 08:48:12;;;;;;;70.93;34.95;;;;;;;11.24;79.86;95504.63;5017848;28;20732;-58
2022/02/22 08:50:40;;;;;;;56.20;29.52;;;;;;;13.43;80.66;95838.41;4989362;28;20058;-57
2022/02/22 08:53:08;;;;;;;52.60;29.20;;;;;;;13.39;78.53;95776.44;5002112;28;20054;-59
2022/02/22 08:55:35;;;;;;;52.53;27.45;;;;;;;13.91;77.67;95845.66;4997672;28;20053;-61
2022/02/22 08:58:02;;;;;;;45.55;25.70;;;;;;;14.11;76.39;95846.53;4997324;28;20612;-59
2022/02/22 09:00:31;;;;;;;53.00;28.48;;;;;;;13.59;75.27;95769.00;4984579;28;20150;-58
2022/02/22 09:03:00;;;;;;;54.83;29.17;;;;;;;13.41;76.50;95785.16;5031300;28;20057;-56
2022/02/22 09:05:28;;;;;;;53.25;28.45;;;;;;;14.09;75.85;95846.16;5007120;28;20060;-59
2022/02/22 09:07:55;;;;;;;35.70;19.50;;;;;;;14.29;72.26;95858.22;5016167;28;20525;-60
2022/02/22 09:10:23;;;;;;;37.58;20.55;;;;;;;13.92;73.16;95758.16;5015440;28;20078;-58
2022/02/22 09:12:51;;;;;;;23.90;13.52;;;;;;;13.13;73.20;95774.44;5021762;28;20090;-58
2022/02/22 09:15:20;;;;;;;30.88;16.15;;;;;;;13.62;72.76;95784.84;5001197;28;20089;-56
2022/02/22 09:17:48;;;;;;;21.45;14.77;;;;;;;14.33;72.58;95822.72;4992625;28;20050;-56
2022/02/22 09:20:17;;;;;;;19.10;10.30;;;;;;;14.28;68.29;95848.25;4991783;28;20068;-56
2022/02/22 09:22:45;;;;;;;22.45;12.73;;;;;;;13.58;70.33;95800.81;4999433;28;20049;-56
2022/02/22 09:25:15;;;;;;;16.42;9.98;;;;;;;13.70;69.83;95836.41;5000552;28;20582;-56
2022/02/22 09:27:43;;;;;;;25.50;12.50;;;;;;;13.85;72.22;95841.78;5000008;28;20052;-58
2022/02/22 09:30:15;;;;;;;22.55;11.35;;;;;;;13.94;69.47;95844.81;5003625;28;20045;-58
2022/02/22 09:32:45;;;;;;;22.65;11.90;;;;;;;13.41;68.80;95774.03;4992728;28;20052;-57
2022/02/22 09:35:17;;;;;;;26.73;12.50;;;;;;;13.67;68.86;95780.81;4989679;28;20045;-56
2022/02/22 09:37:44;;;;;;;19.05;11.07;;;;;;;14.23;67.78;95832.78;4996586;28;20070;-58
2022/02/22 09:40:12;;;;;;;21.20;12.93;;;;;;;14.24;67.06;95833.59;4980298;28;20054;-56
2022/02/22 09:42:41;;;;;;;20.63;11.52;;;;;;;13.81;69.08;95802.06;4979685;28;20397;-57
2022/02/22 09:45:09;;;;;;;20.50;11.07;;;;;;;14.58;67.90;95845.34;4991723;28;20046;-58
2022/02/22 09:47:37;;;;;;;23.65;11.75;;;;;;;14.40;67.68;95836.53;4987074;28;20487;-57
2022/02/22 09:50:05;;;;;;;23.75;11.27;;;;;;;14.66;67.00;95830.09;4993031;28;20046;-61
2022/02/22 09:52:33;;;;;;;21.77;13.07;;;;;;;15.00;65.78;95827.84;5025008;28;20138;-60
2022/02/22 09:55:00;;;;;;;24.63;13.52;;;;;;;14.90;66.61;95832.41;4991038;28;20065;-57
2022/02/22 09:57:27;;;;;;;23.30;11.73;;;;;;;14.29;65.86;95777.44;4991247;28;20053;-57
2022/02/22 09:59:54;;;;;;;27.20;12.88;;;;;;;14.04;66.54;95788.16;4982838;28;20125;-56
2022/02/22 10:02:21;;;;;;;19.65;11.70;;;;;;;14.49;66.56;95820.03;4996622;28;20149;-57
2022/02/22 10:04:50;;;;;;;15.88;8.65;;;;;;;14.30;63.38;95810.44;4995256;28;20104;-56
2022/02/22 10:07:18;;;;;;;13.68;6.65;;;;;;;14.59;61.36;95824.66;4989590;28;20400;-55
2022/02/22 10:09:59;;;;;;;13.90;7.35;;;;;;;14.98;60.11;95835.84;4999911;28;20081;-55
2022/02/22 10:12:31;;;;;;;11.35;6.97;;;;;;;15.38;59.01;95825.47;5003086;28;20144;-56
2022/02/22 10:14:59;;;;;;;15.05;6.90;;;;;;;15.12;58.73;95835.56;5002693;28;20050;-57
2022/02/22 10:17:26;;;;;;;7.68;3.97;;;;;;;14.89;58.28;95850.34;5002579;28;20533;-55
2022/02/22 10:19:58;;;;;;;15.32;5.65;;;;;;;15.21;57.99;95848.94;5002826;28;20137;-55
2022/02/22 10:22:26;;;;;;;11.82;6.13;;;;;;;15.28;57.96;95838.44;5002609;28;20062;-56
2022/02/22 10:25:05;;;;;;;10.27;5.68;;;;;;;14.83;59.18;95848.47;5002893;28;20057;-55
2022/02/22 10:27:50;;;;;;;11.57;6.18;;;;;;;14.91;59.53;95849.91;5006076;28;20061;-56
2022/02/22 10:30:40;;;;;;;10.10;6.22;;;;;;;14.42;60.90;95861.94;5007066;28;20133;-55
2022/02/22 10:33:12;;;;;;;9.77;6.60;;;;;;;14.28;61.61;95851.06;5007037;28;20058;-55
2022/02/22 10:35:40;;;;;;;14.32;7.03;;;;;;;14.27;60.89;95841.13;5006324;28;20798;-56
2022/02/22 10:38:23;;;;;;;11.32;6.45;;;;;;;14.40;61.68;95861.59;5006717;28;20539;-55
2022/02/22 10:40:58;;;;;;;8.57;5.70;;;;;;;14.53;60.43;95870.91;5001427;28;20050;-57
2022/02/22 10:43:34;;;;;;;10.68;6.60;;;;;;;14.38;60.40;95847.31;4987861;28;20061;-60
2022/02/22 10:46:04;;;;;;;13.50;6.20;;;;;;;14.22;61.27;95872.22;4989049;28;20054;-58
2022/02/22 10:48:35;;;;;;;10.25;6.03;;;;;;;14.35;61.06;95881.59;5016549;28;20046;-58
2022/02/22 10:51:10;;;;;;;12.43;6.65;;;;;;;14.17;60.96;95872.69;5000314;28;20053;-56
2022/02/22 10:53:46;;;;;;;9.80;6.85;;;;;;;13.89;62.38;95875.91;4987715;28;20058;-57
2022/02/22 10:56:16;;;;;;;9.50;6.57;;;;;;;13.88;63.22;95879.91;4996537;28;20049;-56
2022/02/22 10:58:44;;;;;;;11.15;6.22;;;;;;;14.07;61.15;95837.47;5007133;28;20068;-57
2022/02/22 11:01:15;;;;;;;11.05;6.32;;;;;;;14.10;61.16;95839.41;5007071;28;20527;-58
2022/02/22 11:03:46;;;;;;;11.25;6.55;;;;;;;14.30;61.01;95882.06;5006838;28;20133;-57
2022/02/22 11:06:14;;;;;;;9.45;5.00;;;;;;;13.51;63.49;95895.50;5006097;28;20528;-58
2022/02/22 11:08:47;;;;;;;8.77;6.15;;;;;;;13.08;66.32;95888.88;5005333;28;20064;-57
2022/02/22 11:11:52;;;;;;;12.15;7.05;;;;;;;12.97;67.00;95899.31;5006802;28;20061;-56
2022/02/22 11:14:27;;;;;;;11.80;7.55;;;;;;;12.69;67.78;95910.72;5006544;28;20132;-56
2022/02/22 11:16:58;;;;;;;14.38;7.93;;;;;;;12.96;67.20;95908.81;5021353;28;20052;-56
2022/02/22 11:19:37;;;;;;;12.77;7.75;;;;;;;11.39;67.58;95734.16;5006820;28;20057;-56
2022/02/22 11:22:19;;;;;;;15.05;7.35;;;;;;;12.65;67.97;95904.38;5005550;28;20475;-57
2022/02/22 11:24:48;;;;;;;13.13;8.13;;;;;;;12.20;69.97;95911.13;5006573;28;20397;-59